createdAt,value
2022-11-15T00:01:58.150Z,52.92
2022-11-15T00:04:44.607Z,53.35
2022-11-15T00:07:54.117Z,52.25
2022-11-15T00:10:39.228Z,49.50
2022-11-15T00:13:24.815Z,48.22
2022-11-15T00:16:14.394Z,48.92
2022-11-15T00:19:00.195Z,48.50
2022-11-15T00:21:45.903Z,47.58
2022-11-15T00:24:33.648Z,49.25
2022-11-15T00:27:21.587Z,46.25
2022-11-15T00:30:07.896Z,46.78
2022-11-15T00:32:53.634Z,48.42
2022-11-15T00:35:39.021Z,46.22
2022-11-15T00:38:24.874Z,44.05
2022-11-15T00:41:10.793Z,44.70
2022-11-15T00:43:56.473Z,44.20
2022-11-15T00:46:42.059Z,42.63
2022-11-15T00:49:28.207Z,44.33
2022-11-15T00:52:13.884Z,39.03
2022-11-15T00:54:59.771Z,41.65
2022-11-15T00:57:48.445Z,40.65
2022-11-15T01:00:34.360Z,42.88
2022-11-15T01:03:20.151Z,40.45
2022-11-15T01:06:07.144Z,39.17
2022-11-15T01:08:52.390Z,40.35
2022-11-15T01:11:38.132Z,30.05
2022-11-15T01:14:25.564Z,31.60
2022-11-15T01:17:11.509Z,38.60
2022-11-15T01:19:56.863Z,39.40
2022-11-15T01:22:42.489Z,40.15
2022-11-15T01:25:28.344Z,39.28
2022-11-15T01:28:14.793Z,38.92
2022-11-15T01:31:01.569Z,40.65
2022-11-15T01:33:48.287Z,39.00
2022-11-15T01:36:33.846Z,40.28
2022-11-15T01:39:22.591Z,40.80
2022-11-15T01:42:13.436Z,40.05
2022-11-15T01:44:59.512Z,40.40
2022-11-15T01:47:49.973Z,39.22
2022-11-15T01:50:35.897Z,39.35
2022-11-15T01:53:25.160Z,33.77
2022-11-15T01:56:16.699Z,40.30
2022-11-15T01:59:05.035Z,38.88
2022-11-15T02:01:51.565Z,38.58
2022-11-15T02:07:32.275Z,38.05
2022-11-15T02:10:20.682Z,38.03
2022-11-15T02:13:06.671Z,38.42
2022-11-15T02:16:23.311Z,38.97
2022-11-15T02:19:29.742Z,37.55
2022-11-15T02:22:31.082Z,38.70
2022-11-15T02:25:40.908Z,36.20
2022-11-15T02:28:43.023Z,37.67
2022-11-15T02:31:32.040Z,36.08
2022-11-15T02:34:30.307Z,36.45
2022-11-15T02:37:22.473Z,36.85
2022-11-15T02:40:52.685Z,36.55
2022-11-15T02:43:58.568Z,34.75
2022-11-15T02:47:16.013Z,36.60
2022-11-15T02:50:25.565Z,36.20
2022-11-15T02:53:11.399Z,37.38
2022-11-15T02:56:00.094Z,28.65
2022-11-15T02:59:12.768Z,35.10
2022-11-15T03:02:29.556Z,35.92
2022-11-15T03:05:39.766Z,36.33
2022-11-15T03:08:55.928Z,38.88
2022-11-15T03:11:51.676Z,35.97
2022-11-15T03:15:03.904Z,38.00
2022-11-15T03:18:22.859Z,34.33
2022-11-15T03:21:12.395Z,35.88
2022-11-15T03:24:01.938Z,37.03
2022-11-15T03:26:49.221Z,35.05
2022-11-15T03:29:39.062Z,35.35
2022-11-15T03:32:29.175Z,34.80
2022-11-15T03:35:27.987Z,35.25
2022-11-15T03:38:36.014Z,37.10
2022-11-15T03:41:33.678Z,37.97
2022-11-15T03:44:47.217Z,38.42
2022-11-15T03:47:50.802Z,38.13
2022-11-15T03:50:37.587Z,39.13
2022-11-15T03:53:23.170Z,40.65
2022-11-15T03:56:08.847Z,44.17
2022-11-15T03:58:54.654Z,40.88
2022-11-15T04:01:40.481Z,39.33
2022-11-15T04:04:28.411Z,43.17
2022-11-15T04:07:14.062Z,42.65
2022-11-15T04:10:06.576Z,42.30
2022-11-15T04:12:52.534Z,43.65
2022-11-15T04:15:40.246Z,35.58
2022-11-15T04:18:25.975Z,44.83
2022-11-15T04:21:30.703Z,42.45
2022-11-15T04:24:16.538Z,43.55
2022-11-15T04:27:02.123Z,42.88
2022-11-15T04:29:48.069Z,41.90
2022-11-15T04:32:33.670Z,43.08
2022-11-15T04:35:19.570Z,42.63
2022-11-15T04:38:07.762Z,31.60
2022-11-15T04:40:53.510Z,41.75
2022-11-15T04:43:39.076Z,41.53
2022-11-15T04:46:25.468Z,39.85
2022-11-15T04:52:01.318Z,40.65
2022-11-15T04:54:46.970Z,40.05
2022-11-15T04:57:32.572Z,41.72
2022-11-15T05:00:18.325Z,43.10
2022-11-15T05:03:22.977Z,42.78
2022-11-15T05:06:08.548Z,40.78
2022-11-15T05:08:54.776Z,41.58
2022-11-15T05:11:41.489Z,38.72
2022-11-15T05:14:27.306Z,40.70
2022-11-15T05:17:13.330Z,41.08
2022-11-15T05:19:59.022Z,43.03
2022-11-15T05:22:44.322Z,40.78
2022-11-15T05:25:30.151Z,31.02
2022-11-15T05:28:15.577Z,40.17
2022-11-15T05:31:10.265Z,38.28
2022-11-15T05:33:57.809Z,39.67
2022-11-15T05:36:46.910Z,39.92
2022-11-15T05:39:32.730Z,38.80
2022-11-15T05:42:19.832Z,39.35
2022-11-15T05:45:07.663Z,36.95
2022-11-15T05:47:55.669Z,37.15
2022-11-15T05:50:45.395Z,38.35
2022-11-15T05:53:31.854Z,37.38
2022-11-15T05:56:17.848Z,38.38
2022-11-15T05:59:04.801Z,37.28
2022-11-15T06:01:50.439Z,39.13
2022-11-15T06:07:22.413Z,35.25
2022-11-15T06:10:08.973Z,36.85
2022-11-15T06:15:46.134Z,37.40
2022-11-15T06:18:34.959Z,38.28
2022-11-15T06:21:21.001Z,37.83
2022-11-15T06:24:07.189Z,38.53
2022-11-15T06:26:53.768Z,38.22
2022-11-15T06:29:39.077Z,40.20
2022-11-15T06:32:24.759Z,40.42
2022-11-15T06:35:10.005Z,38.45
2022-11-15T06:37:56.150Z,41.35
2022-11-15T06:40:41.981Z,40.45
2022-11-15T06:43:27.878Z,40.50
2022-11-15T06:46:13.439Z,40.75
2022-11-15T06:48:59.491Z,41.17
2022-11-15T06:51:44.924Z,42.15
2022-11-15T06:54:30.696Z,41.92
2022-11-15T06:57:16.490Z,40.35
2022-11-15T07:00:07.086Z,40.70
2022-11-15T07:02:52.464Z,42.30
2022-11-15T07:05:40.852Z,42.85
2022-11-15T07:08:29.298Z,40.42
2022-11-15T07:11:15.695Z,40.80
2022-11-15T07:14:01.426Z,41.22
2022-11-15T07:19:33.128Z,39.28
2022-11-15T07:22:19.460Z,32.55
2022-11-15T07:28:01.023Z,38.65
2022-11-15T07:30:47.034Z,32.80
2022-11-15T07:33:34.158Z,39.75
2022-11-15T07:36:20.024Z,39.22
2022-11-15T07:39:05.907Z,40.10
2022-11-15T07:42:11.376Z,40.00
2022-11-15T07:44:57.393Z,40.15
2022-11-15T07:47:47.143Z,40.03
2022-11-15T07:50:35.427Z,42.30
2022-11-15T07:53:21.070Z,39.80
2022-11-15T07:56:08.662Z,41.30
2022-11-15T07:58:58.534Z,39.33
2022-11-15T08:01:44.431Z,43.20
2022-11-15T08:04:29.798Z,32.95
2022-11-15T08:07:15.775Z,40.90
2022-11-15T08:10:06.939Z,38.55
2022-11-15T08:13:03.496Z,41.38
2022-11-15T08:15:52.259Z,40.78
2022-11-15T08:18:42.716Z,39.70
2022-11-15T08:21:28.293Z,40.00
2022-11-15T08:24:14.441Z,42.90
2022-11-15T08:26:59.920Z,39.85
2022-11-15T08:29:47.283Z,40.25
2022-11-15T08:32:33.234Z,41.85
2022-11-15T08:35:22.584Z,42.88
2022-11-15T08:38:10.556Z,42.10
2022-11-15T08:41:03.085Z,39.72
2022-11-15T08:43:48.836Z,41.38
2022-11-15T08:49:23.049Z,36.45
2022-11-15T08:52:09.167Z,38.90
2022-11-15T08:54:54.860Z,37.78
2022-11-15T09:00:26.843Z,37.58
2022-11-15T09:03:12.886Z,37.65
2022-11-15T09:06:01.350Z,41.30
2022-11-15T09:08:48.423Z,40.00
2022-11-15T09:11:35.248Z,43.00
2022-11-15T09:14:20.970Z,38.85
2022-11-15T09:17:09.825Z,39.80
2022-11-15T09:19:55.882Z,42.75
2022-11-15T09:22:41.743Z,42.42
2022-11-15T09:25:27.417Z,43.45
2022-11-15T09:28:13.034Z,29.08
2022-11-15T09:31:05.353Z,40.63
2022-11-15T09:33:50.632Z,39.85
2022-11-15T09:36:39.689Z,38.08
2022-11-15T09:39:25.151Z,40.45
2022-11-15T09:42:32.829Z,40.83
2022-11-15T09:45:27.330Z,39.08
2022-11-15T09:48:25.319Z,40.08
2022-11-15T09:51:19.968Z,39.80
2022-11-15T09:54:45.536Z,40.97
2022-11-15T09:56:44.973Z,39.08
2022-11-15T09:59:27.729Z,41.95
2022-11-15T10:02:13.491Z,39.50
2022-11-15T10:04:41.594Z,41.28
2022-11-15T10:07:29.308Z,42.22
2022-11-15T10:10:13.561Z,39.58
2022-11-15T10:12:45.512Z,40.92
2022-11-15T10:15:23.627Z,41.38
2022-11-15T10:18:19.350Z,40.78
2022-11-15T10:21:16.579Z,39.55
2022-11-15T10:23:43.984Z,38.67
2022-11-15T10:26:16.051Z,41.42
2022-11-15T10:28:45.499Z,40.65
2022-11-15T10:31:29.971Z,37.40
2022-11-15T10:34:17.456Z,40.63
2022-11-15T10:36:56.208Z,39.97
2022-11-15T10:39:23.470Z,41.63
2022-11-15T10:41:51.218Z,39.28
2022-11-15T10:44:18.121Z,40.72
2022-11-15T10:47:07.492Z,41.17
2022-11-15T10:49:46.838Z,40.88
2022-11-15T10:52:21.220Z,40.97
2022-11-15T10:54:56.315Z,40.75
2022-11-15T10:57:27.602Z,41.13
2022-11-15T11:00:00.478Z,42.15
2022-11-15T11:03:08.262Z,42.35
2022-11-15T11:08:12.775Z,38.97
2022-11-15T11:11:01.310Z,42.85
2022-11-15T11:13:41.004Z,41.83
2022-11-15T11:16:37.766Z,42.05
2022-11-15T11:19:19.206Z,39.70
2022-11-15T11:21:58.419Z,40.65
2022-11-15T11:24:44.337Z,41.25
2022-11-15T11:27:45.599Z,41.78
2022-11-15T11:30:21.646Z,40.60
2022-11-15T11:33:22.799Z,40.33
2022-11-15T11:35:59.214Z,38.13
2022-11-15T11:38:32.556Z,37.97
2022-11-15T11:41:16.394Z,38.90
2022-11-15T11:44:21.443Z,38.53
2022-11-15T11:46:59.828Z,36.35
2022-11-15T11:49:33.506Z,38.00
2022-11-15T11:52:14.140Z,39.15
2022-11-15T11:55:07.044Z,38.38
2022-11-15T11:57:50.435Z,38.35
2022-11-15T12:00:22.040Z,38.05
2022-11-15T12:03:04.733Z,37.65
2022-11-15T12:05:45.653Z,36.95
2022-11-15T12:08:34.402Z,38.70
2022-11-15T12:11:10.557Z,39.15
2022-11-15T12:13:39.968Z,40.63
2022-11-15T12:16:11.001Z,38.85
2022-11-15T12:18:38.999Z,41.53
2022-11-15T12:21:16.069Z,40.22
2022-11-15T12:23:53.453Z,40.85
2022-11-15T12:26:27.213Z,41.97
2022-11-15T12:29:07.954Z,42.25
2022-11-15T12:31:38.234Z,40.33
2022-11-15T12:34:28.641Z,44.40
2022-11-15T12:36:56.614Z,41.65
2022-11-15T12:40:04.066Z,42.65
2022-11-15T12:42:31.304Z,40.65
2022-11-15T12:45:00.906Z,42.65
2022-11-15T12:47:28.421Z,42.53
2022-11-15T12:49:55.885Z,44.30
2022-11-15T12:52:23.460Z,46.65
2022-11-15T12:54:56.393Z,46.70
2022-11-15T12:57:33.004Z,46.30
2022-11-15T13:00:07.737Z,46.40
2022-11-15T13:02:49.483Z,47.50
2022-11-15T13:05:16.946Z,46.20
2022-11-15T13:07:43.916Z,49.78
2022-11-15T13:10:11.513Z,48.78
2022-11-15T13:12:42.077Z,46.92
2022-11-15T13:15:18.418Z,49.30
2022-11-15T13:17:55.373Z,47.70
2022-11-15T13:20:29.266Z,50.88
2022-11-15T13:23:00.575Z,46.38
2022-11-15T13:25:37.202Z,49.05
2022-11-15T13:28:27.454Z,46.72
2022-11-15T13:31:00.440Z,47.90
2022-11-15T13:33:36.610Z,51.70
2022-11-15T13:36:26.678Z,51.13
2022-11-15T13:39:01.055Z,53.88
2022-11-15T13:41:31.595Z,50.60
2022-11-15T13:44:00.097Z,51.72
2022-11-15T13:46:30.140Z,51.38
2022-11-15T13:49:03.436Z,50.53
2022-11-15T13:51:33.831Z,48.92
2022-11-15T13:54:13.356Z,49.10
2022-11-15T13:56:50.451Z,47.97
2022-11-15T13:59:27.666Z,47.78
2022-11-15T14:02:12.393Z,55.35
2022-11-15T14:04:47.771Z,51.42
2022-11-15T14:07:24.438Z,48.40
2022-11-15T14:09:51.671Z,48.00
2022-11-15T14:12:34.523Z,48.50
2022-11-15T14:15:19.944Z,48.55
2022-11-15T14:17:50.385Z,51.78
2022-11-15T14:20:39.081Z,50.28
2022-11-15T14:23:20.898Z,50.20
2022-11-15T14:25:58.120Z,50.50
2022-11-15T14:28:25.402Z,51.63
2022-11-15T14:30:58.572Z,50.08
2022-11-15T14:33:37.787Z,53.38
2022-11-15T14:36:06.740Z,50.85
2022-11-15T14:38:34.346Z,52.80
2022-11-15T14:41:01.708Z,50.15
2022-11-15T14:43:29.064Z,54.20
2022-11-15T14:45:56.086Z,54.10
2022-11-15T14:48:23.474Z,50.97
2022-11-15T14:50:50.535Z,48.95
2022-11-15T14:53:18.997Z,50.03
2022-11-15T14:55:48.629Z,53.65
2022-11-15T14:58:15.945Z,54.60
2022-11-15T15:00:43.048Z,56.92
2022-11-15T15:03:10.786Z,57.60
2022-11-15T15:05:42.929Z,56.45
2022-11-15T15:08:11.324Z,57.53
2022-11-15T15:10:44.460Z,57.92
2022-11-15T15:13:24.188Z,59.88
2022-11-15T15:15:55.290Z,58.25
2022-11-15T15:18:24.956Z,60.95
2022-11-15T15:21:08.187Z,58.42
2022-11-15T15:23:36.686Z,58.28
2022-11-15T15:26:03.937Z,60.53
2022-11-15T15:28:34.526Z,58.75
2022-11-15T15:31:02.815Z,56.15
2022-11-15T15:33:30.156Z,58.88
2022-11-15T15:35:57.267Z,60.08
2022-11-15T15:38:24.875Z,61.45
2022-11-15T15:40:51.987Z,59.97
2022-11-15T15:43:22.051Z,58.70
2022-11-15T15:45:49.370Z,58.58
2022-11-15T15:48:19.125Z,58.45
2022-11-15T15:50:46.538Z,59.70
2022-11-15T15:53:14.571Z,56.80
2022-11-15T15:55:42.035Z,57.55
2022-11-15T15:58:09.691Z,58.70
2022-11-15T16:00:37.384Z,56.13
2022-11-15T16:03:04.718Z,60.35
2022-11-15T16:05:31.835Z,55.53
2022-11-15T16:07:59.133Z,59.15
2022-11-15T16:10:32.008Z,58.20
2022-11-15T16:13:01.795Z,56.83
2022-11-15T16:15:31.773Z,58.70
2022-11-15T16:18:01.363Z,58.92
2022-11-15T16:20:45.675Z,59.25
2022-11-15T16:23:17.280Z,58.05
2022-11-15T16:25:51.702Z,56.30
2022-11-15T16:28:31.882Z,57.65
2022-11-15T16:31:11.799Z,55.38
2022-11-15T16:33:40.291Z,54.95
2022-11-15T16:36:34.419Z,59.42
2022-11-15T16:39:05.753Z,55.22
2022-11-15T16:41:33.072Z,57.58
2022-11-15T16:44:03.003Z,58.53
2022-11-15T16:46:30.344Z,56.72
2022-11-15T16:49:00.035Z,56.97
2022-11-15T16:51:27.328Z,53.75
2022-11-15T16:53:54.889Z,50.33
2022-11-15T16:56:30.080Z,48.50
2022-11-15T16:58:59.440Z,46.13
2022-11-15T17:01:29.884Z,43.03
2022-11-15T17:03:58.509Z,41.80
2022-11-15T17:06:27.289Z,39.13
2022-11-15T17:08:59.596Z,38.50
2022-11-15T17:11:26.846Z,38.33
2022-11-15T17:13:59.141Z,37.38
2022-11-15T17:16:27.538Z,38.15
2022-11-15T17:18:55.056Z,38.35
2022-11-15T17:21:24.970Z,37.97
2022-11-15T17:23:55.088Z,40.00
2022-11-15T17:26:30.277Z,38.03
2022-11-15T17:29:01.016Z,38.38
2022-11-15T17:31:30.876Z,37.90
2022-11-15T17:34:02.933Z,38.65
2022-11-15T17:36:31.831Z,37.03
2022-11-15T17:39:00.225Z,38.88
2022-11-15T17:41:29.702Z,40.10
2022-11-15T17:43:58.635Z,38.63
2022-11-15T17:46:26.266Z,39.83
2022-11-15T17:48:55.860Z,38.58
2022-11-15T17:51:24.343Z,39.67
2022-11-15T17:53:53.503Z,38.10
2022-11-15T17:56:31.358Z,39.13
2022-11-15T17:59:00.693Z,40.53
2022-11-15T18:01:33.498Z,37.67
2022-11-15T18:04:03.186Z,39.10
2022-11-15T18:06:33.642Z,37.25
2022-11-15T18:09:02.105Z,40.42
2022-11-15T18:11:40.569Z,38.22
2022-11-15T18:14:16.188Z,40.83
2022-11-15T18:16:44.622Z,42.55
2022-11-15T18:19:17.016Z,44.95
2022-11-15T18:22:04.456Z,41.88
2022-11-15T18:24:35.254Z,40.30
2022-11-15T18:27:04.474Z,41.47
2022-11-15T18:29:35.094Z,40.95
2022-11-15T18:32:11.943Z,39.65
2022-11-15T18:34:40.011Z,39.90
2022-11-15T18:37:07.883Z,41.67
2022-11-15T18:39:36.037Z,41.25
2022-11-15T18:42:05.259Z,41.38
2022-11-15T18:44:32.878Z,43.97
2022-11-15T18:47:03.074Z,44.97
2022-11-15T18:49:30.390Z,44.10
2022-11-15T18:51:58.385Z,41.33
2022-11-15T18:54:30.594Z,40.17
2022-11-15T18:57:02.260Z,43.00
2022-11-15T18:59:30.562Z,41.80
2022-11-15T19:01:58.995Z,42.80
2022-11-15T19:04:29.962Z,40.88
2022-11-15T19:07:00.403Z,41.28
2022-11-15T19:09:32.968Z,40.78
2022-11-15T19:12:01.369Z,40.55
2022-11-15T19:14:29.180Z,39.30
2022-11-15T19:16:56.952Z,41.50
2022-11-15T19:19:28.221Z,40.78
2022-11-15T19:21:58.002Z,36.55
2022-11-15T19:24:28.011Z,32.63
2022-11-15T19:26:57.624Z,33.25
2022-11-15T19:29:25.952Z,32.33
2022-11-15T19:31:54.453Z,27.80
2022-11-15T19:34:24.706Z,27.60
2022-11-15T19:36:53.547Z,29.25
2022-11-15T19:39:21.611Z,27.50
2022-11-15T19:41:51.095Z,28.33
2022-11-15T19:44:19.514Z,28.58
2022-11-15T19:46:48.675Z,28.27
2022-11-15T19:49:16.229Z,27.88
2022-11-15T19:51:45.583Z,27.88
2022-11-15T19:54:17.543Z,25.10
2022-11-15T19:56:45.816Z,24.85
2022-11-15T19:59:13.929Z,25.35
2022-11-15T20:01:42.824Z,26.00
2022-11-15T20:04:10.467Z,24.33
2022-11-15T20:06:41.586Z,25.83
2022-11-15T20:09:13.398Z,24.35
2022-11-15T20:11:41.271Z,25.38
2022-11-15T20:14:11.266Z,23.10
2022-11-15T20:16:39.926Z,23.63
2022-11-15T20:19:08.571Z,24.00
2022-11-15T20:21:36.601Z,22.85
2022-11-15T20:24:06.971Z,22.30
2022-11-15T20:26:35.741Z,22.58
2022-11-15T20:29:04.141Z,22.83
2022-11-15T20:31:32.081Z,22.65
2022-11-15T20:33:59.807Z,24.10
2022-11-15T20:36:30.884Z,23.05
2022-11-15T20:39:00.936Z,22.95
2022-11-15T20:41:30.504Z,22.88
2022-11-15T20:43:58.807Z,22.30
2022-11-15T20:46:26.649Z,22.15
2022-11-15T20:48:53.919Z,23.58
2022-11-15T20:51:23.886Z,23.63
2022-11-15T20:53:53.042Z,24.30
2022-11-15T20:56:22.352Z,24.42
2022-11-15T20:58:50.959Z,25.15
2022-11-15T21:01:23.721Z,25.10
2022-11-15T21:03:58.454Z,25.10
2022-11-15T21:06:29.166Z,25.08
2022-11-15T21:09:15.174Z,23.33
2022-11-15T21:14:28.455Z,24.67
2022-11-15T21:16:56.020Z,25.60
2022-11-15T21:19:29.052Z,27.10
2022-11-15T21:22:03.295Z,28.15
2022-11-15T21:24:30.556Z,27.70
2022-11-15T21:26:58.115Z,27.63
2022-11-15T21:29:25.324Z,29.02
2022-11-15T21:31:53.657Z,30.65
2022-11-15T21:34:22.999Z,31.42
2022-11-15T21:36:50.311Z,32.88
2022-11-15T21:39:17.285Z,31.73
2022-11-15T21:41:45.059Z,32.95
2022-11-15T21:44:12.035Z,32.90
2022-11-15T21:46:39.399Z,34.53
2022-11-15T21:49:09.106Z,31.98
2022-11-15T21:51:36.585Z,34.25
2022-11-15T21:54:03.838Z,33.15
2022-11-15T21:56:32.630Z,32.25
2022-11-15T21:59:00.157Z,32.58
2022-11-15T22:01:46.946Z,31.92
2022-11-15T22:04:16.612Z,32.53
2022-11-15T22:06:44.037Z,30.83
2022-11-15T22:09:13.365Z,32.08
2022-11-15T22:11:40.795Z,32.10
2022-11-15T22:14:10.545Z,31.73
2022-11-15T22:16:38.270Z,30.48
2022-11-15T22:19:07.707Z,29.70
2022-11-15T22:21:35.638Z,29.77
2022-11-15T22:24:02.799Z,29.15
2022-11-15T22:26:30.319Z,29.70
2022-11-15T22:29:02.039Z,29.20
2022-11-15T22:31:29.383Z,29.88
2022-11-15T22:33:58.600Z,30.13
2022-11-15T22:36:30.371Z,27.88
2022-11-15T22:39:06.780Z,28.98
2022-11-15T22:41:34.072Z,29.30
2022-11-15T22:44:01.295Z,29.50
2022-11-15T22:46:30.325Z,29.63
2022-11-15T22:49:03.132Z,29.15
2022-11-15T22:51:30.751Z,29.77
2022-11-15T22:53:57.860Z,29.08
2022-11-15T22:56:25.179Z,31.10
2022-11-15T22:58:52.100Z,30.98
2022-11-15T23:01:24.718Z,32.58
2022-11-15T23:03:51.983Z,31.55
2022-11-15T23:06:21.629Z,32.58
2022-11-15T23:08:48.610Z,32.40
2022-11-15T23:11:35.351Z,32.47
2022-11-15T23:16:35.445Z,31.98
2022-11-15T23:19:06.161Z,31.42
2022-11-15T23:21:55.356Z,32.13
2022-11-15T23:24:23.251Z,33.17
2022-11-15T23:26:53.829Z,33.00
2022-11-15T23:29:23.001Z,34.08
2022-11-15T23:32:09.372Z,32.40
2022-11-15T23:34:41.726Z,31.75
2022-11-15T23:37:11.510Z,33.10
2022-11-15T23:39:38.770Z,32.03
2022-11-15T23:42:09.411Z,35.15
2022-11-15T23:44:37.131Z,33.15
2022-11-15T23:47:04.793Z,34.22
2022-11-15T23:49:31.755Z,34.60
2022-11-15T23:51:59.091Z,33.58
2022-11-15T23:54:26.122Z,34.40
2022-11-15T23:56:55.837Z,34.33
2022-11-15T23:59:22.856Z,35.72
